Climatologie pour Saint-Brevin les Pins
Jour • Résumé pour juin 29, 2017 Système :  Métrique    Anglais   Mixte
« - 1 jour
+ 1 jour »
Jour Semaine Mois Année Personnalisé
  Maximum : Minimum : Moyenne :
Température sous abri : 20.9 °C 14.4 °C 17.1 °C
Point de rosée : 15.9 °C 11.3 °C 13.7 °C
Humidité : 94 % 67 % 81 %
Vitesse du vent : 24.1 km/h 0.0 km/h 9 km/h
Rafale : 37.0 km/h - -
Direction :- - West
Pression : 1001.6 hPa 997.9 hPa -
Précipitations : 1.0 mm    
Historical Graphs
 
 
Tableau de données pour juin 29, 2017
Heure Tempé Pt rosée Pression Vent Vitesse Rafale Humidité Taux pluie (/hr) Soleil
00:00 16.8 °C 12.3 °C 1000.6 hPa NNW 6.4 km/h 16.1 km/h 75 % 0.0 mm 0 W/m2
00:10 16.6 °C 12.3 °C 1000.6 hPa NW 12.9 km/h 19.3 km/h 76 % 0.0 mm 0 W/m2
00:15 16.6 °C 12.4 °C 1000.6 hPa NW 16.1 km/h 22.5 km/h 76 % 0.0 mm 0 W/m2
00:20 16.5 °C 12.3 °C 1000.6 hPa WNW 4.8 km/h 24.1 km/h 76 % 0.0 mm 0 W/m2
00:25 16.4 °C 12.6 °C 1000.6 hPa NW 8.0 km/h 27.4 km/h 78 % 0.0 mm 0 W/m2
00:30 16.3 °C 12.6 °C 1000.6 hPa West 4.8 km/h 27.4 km/h 79 % 0.0 mm 0 W/m2
00:40 16.1 °C 12.7 °C 1000.9 hPa West 6.4 km/h 20.9 km/h 80 % 0.0 mm 0 W/m2
00:45 16.1 °C 12.6 °C 1000.9 hPa WNW 9.7 km/h 20.9 km/h 80 % 0.0 mm 0 W/m2
00:50 16.0 °C 12.7 °C 1000.9 hPa NW 11.3 km/h 20.9 km/h 81 % 0.0 mm 0 W/m2
00:55 15.9 °C 12.6 °C 1000.6 hPa NNW 4.8 km/h 17.7 km/h 81 % 0.0 mm 0 W/m2
01:00 15.8 °C 12.3 °C 1000.9 hPa NW 19.3 km/h 24.1 km/h 80 % 0.0 mm 0 W/m2
01:05 15.7 °C 12.1 °C 1000.9 hPa NW 11.3 km/h 24.1 km/h 79 % 0.0 mm 0 W/m2
01:15 15.6 °C 11.5 °C 1000.9 hPa NNW 4.8 km/h 19.3 km/h 77 % 0.0 mm 0 W/m2
01:25 15.3 °C 11.3 °C 1000.6 hPa Calm   12.9 km/h 77 % 0.0 mm 0 W/m2
01:30 15.1 °C 11.4 °C 1000.6 hPa WNW 6.4 km/h 14.5 km/h 79 % 0.0 mm 0 W/m2
01:35 15.0 °C 11.4 °C 1000.6 hPa WNW 6.4 km/h 16.1 km/h 79 % 0.0 mm 0 W/m2
01:40 14.9 °C 11.3 °C 1000.6 hPa WNW 9.7 km/h 16.1 km/h 79 % 0.0 mm 0 W/m2
01:45 15.1 °C 11.5 °C 1000.6 hPa WNW 11.3 km/h 16.1 km/h 79 % 0.0 mm 0 W/m2
01:50 15.2 °C 11.4 °C 1000.6 hPa West 6.4 km/h 16.1 km/h 78 % 0.0 mm 0 W/m2
01:55 15.3 °C 11.5 °C 1000.6 hPa WNW 3.2 km/h 16.1 km/h 78 % 0.0 mm 0 W/m2
02:00 15.3 °C 11.5 °C 1000.6 hPa West 3.2 km/h 12.9 km/h 78 % 0.0 mm 0 W/m2
02:10 15.6 °C 11.9 °C 1000.6 hPa WNW 1.6 km/h 12.9 km/h 79 % 0.0 mm 0 W/m2
02:15 15.6 °C 11.9 °C 1000.6 hPa WNW 3.2 km/h 9.7 km/h 79 % 0.0 mm 0 W/m2
02:20 15.7 °C 12.0 °C 1000.6 hPa WNW 4.8 km/h 9.7 km/h 79 % 0.0 mm 0 W/m2
02:25 15.7 °C 11.9 °C 1000.2 hPa NW 4.8 km/h 9.7 km/h 78 % 0.0 mm 0 W/m2
02:30 15.8 °C 11.8 °C 1000.2 hPa WNW 4.8 km/h 12.9 km/h 77 % 0.0 mm 0 W/m2
02:35 16.0 °C 12.2 °C 1000.2 hPa NW 6.4 km/h 12.9 km/h 78 % 0.0 mm 0 W/m2
02:40 16.0 °C 12.2 °C 1000.2 hPa WNW 6.4 km/h 11.3 km/h 78 % 0.0 mm 0 W/m2
02:45 16.1 °C 12.5 °C 999.9 hPa West 4.8 km/h 16.1 km/h 79 % 0.0 mm 0 W/m2
02:55 16.1 °C 12.6 °C 1000.2 hPa West 11.3 km/h 20.9 km/h 80 % 0.0 mm 0 W/m2
03:00 15.8 °C 12.4 °C 999.9 hPa WNW 9.7 km/h 20.9 km/h 80 % 0.0 mm 0 W/m2
03:05 15.7 °C 12.4 °C 999.9 hPa WNW 4.8 km/h 19.3 km/h 81 % 0.0 mm 0 W/m2
03:10 15.6 °C 12.5 °C 999.9 hPa WNW 3.2 km/h 14.5 km/h 82 % 0.0 mm 0 W/m2
03:15 15.5 °C 12.4 °C 999.9 hPa WNW 3.2 km/h 11.3 km/h 82 % 0.0 mm 0 W/m2
03:20 15.4 °C 12.4 °C 999.9 hPa WNW 4.8 km/h 9.7 km/h 82 % 0.0 mm 0 W/m2
03:25 15.4 °C 12.2 °C 999.9 hPa WNW 3.2 km/h 9.7 km/h 81 % 0.0 mm 0 W/m2
03:30 15.4 °C 12.2 °C 999.5 hPa WNW 1.6 km/h 8.0 km/h 81 % 0.0 mm 0 W/m2
03:40 15.1 °C 12.0 °C 999.5 hPa Calm   6.4 km/h 82 % 0.0 mm 0 W/m2
03:45 14.9 °C 12.1 °C 999.5 hPa Calm   6.4 km/h 83 % 0.0 mm 0 W/m2
03:50 14.8 °C 12.0 °C 999.5 hPa Calm   3.2 km/h 83 % 0.0 mm 0 W/m2
03:55 14.9 °C 12.0 °C 999.5 hPa Calm   3.2 km/h 83 % 0.0 mm 0 W/m2
04:00 15.0 °C 12.1 °C 999.2 hPa Calm   3.2 km/h 83 % 0.0 mm 0 W/m2
04:05 15.1 °C 12.0 °C 999.2 hPa Calm   4.8 km/h 82 % 0.0 mm 0 W/m2
04:10 15.2 °C 12.1 °C 999.5 hPa Calm   4.8 km/h 82 % 0.0 mm 0 W/m2
04:15 15.2 °C 12.2 °C 999.2 hPa Calm   4.8 km/h 82 % 0.0 mm 0 W/m2
04:25 15.2 °C 12.4 °C 999.2 hPa Calm   1.6 km/h 83 % 0.0 mm 0 W/m2
04:30 15.1 °C 12.2 °C 999.2 hPa Calm   3.2 km/h 83 % 0.0 mm 0 W/m2
04:35 15.3 °C 12.5 °C 999.2 hPa WSW 3.2 km/h 9.7 km/h 83 % 0.0 mm 0 W/m2
04:40 15.6 °C 12.5 °C 999.2 hPa Calm   9.7 km/h 82 % 0.0 mm 0 W/m2
04:45 15.6 °C 12.5 °C 999.2 hPa Calm   6.4 km/h 82 % 0.0 mm 0 W/m2
04:50 15.7 °C 12.8 °C 999.2 hPa Calm   4.8 km/h 83 % 0.0 mm 0 W/m2
04:55 15.7 °C 13.0 °C 998.9 hPa Calm   4.8 km/h 84 % 0.0 mm 0 W/m2
05:00 15.6 °C 13.0 °C 998.9 hPa SSW 12.9 km/h 12.9 km/h 85 % 0.0 mm 0 W/m2
05:10 15.2 °C 13.4 °C 998.9 hPa SW 4.8 km/h 11.3 km/h 89 % 0.5 mm 0 W/m2
05:20 14.8 °C 13.4 °C 998.9 hPa South 8.0 km/h 11.3 km/h 91 % 0.5 mm 0 W/m2
05:30 14.8 °C 13.7 °C 998.9 hPa SSW 8.0 km/h 8.0 km/h 93 % 0.8 mm 0 W/m2
05:35 14.7 °C 13.6 °C 998.9 hPa Calm   9.7 km/h 93 % 0.8 mm 0 W/m2
05:40 14.7 °C 13.6 °C 998.5 hPa SSW 3.2 km/h 9.7 km/h 93 % 0.8 mm 0 W/m2
05:45 14.7 °C 13.5 °C 998.5 hPa Calm   6.4 km/h 93 % 0.8 mm 0 W/m2
05:55 14.4 °C 13.5 °C 998.5 hPa Calm   6.4 km/h 94 % 0.8 mm 0 W/m2
06:00 14.5 °C 13.5 °C 998.5 hPa SSW 4.8 km/h 6.4 km/h 94 % 0.8 mm 0 W/m2
06:05 14.5 °C 13.5 °C 998.5 hPa SSW 3.2 km/h 6.4 km/h 94 % 0.5 mm 0 W/m2
06:10 14.5 °C 13.5 °C 998.5 hPa SW 4.8 km/h 8.0 km/h 94 % 0.3 mm 0 W/m2
06:15 14.5 °C 13.5 °C 998.5 hPa Calm   11.3 km/h 94 % 0.3 mm 0 W/m2
06:20 14.6 °C 13.7 °C 998.5 hPa SW 6.4 km/h 12.9 km/h 94 % 0.3 mm 0 W/m2
06:30 14.8 °C 13.8 °C 998.5 hPa West 12.9 km/h 14.5 km/h 94 % 0.0 mm 5 W/m2
06:40 14.5 °C 13.2 °C 998.2 hPa WSW 8.0 km/h 19.3 km/h 92 % 0.0 mm 16 W/m2
06:45 14.6 °C 13.3 °C 998.2 hPa WNW 6.4 km/h 20.9 km/h 92 % 0.0 mm 28 W/m2
06:50 14.8 °C 13.5 °C 998.2 hPa WNW 8.0 km/h 20.9 km/h 92 % 0.0 mm 30 W/m2
06:55 14.9 °C 13.4 °C 998.2 hPa WNW 6.4 km/h 16.1 km/h 91 % 0.0 mm 37 W/m2
07:00 15.0 °C 13.5 °C 998.2 hPa WNW 4.8 km/h 17.7 km/h 91 % 0.0 mm 32 W/m2
07:05 15.1 °C 13.5 °C 998.2 hPa WNW 12.9 km/h 20.9 km/h 90 % 0.0 mm 39 W/m2
07:10 15.2 °C 13.6 °C 998.2 hPa West 6.4 km/h 20.9 km/h 90 % 0.0 mm 44 W/m2
07:15 15.3 °C 13.7 °C 998.2 hPa SW 8.0 km/h 19.3 km/h 90 % 0.0 mm 51 W/m2
07:25 15.6 °C 13.8 °C 998.2 hPa WNW 12.9 km/h 22.5 km/h 89 % 0.0 mm 77 W/m2
07:30 15.7 °C 13.9 °C 998.2 hPa WSW 9.7 km/h 22.5 km/h 89 % 0.0 mm 90 W/m2
07:35 15.9 °C 14.1 °C 998.2 hPa NNW 17.7 km/h 20.9 km/h 89 % 0.0 mm 32 W/m2
07:40 15.7 °C 13.6 °C 998.2 hPa West 6.4 km/h 20.9 km/h 87 % 0.0 mm 35 W/m2
07:45 15.6 °C 13.6 °C 997.9 hPa WNW 6.4 km/h 20.9 km/h 88 % 0.0 mm 46 W/m2
07:50 15.6 °C 13.6 °C 998.2 hPa WNW 6.4 km/h 20.9 km/h 88 % 0.0 mm 62 W/m2
07:55 15.8 °C 14.0 °C 998.2 hPa NW 6.4 km/h 22.5 km/h 89 % 0.0 mm 74 W/m2
08:00 15.9 °C 14.1 °C 998.2 hPa WSW 1.6 km/h 22.5 km/h 89 % 0.0 mm 149 W/m2
08:10 16.3 °C 14.1 °C 998.2 hPa West 12.9 km/h 27.4 km/h 87 % 0.0 mm 120 W/m2
08:15 16.3 °C 14.1 °C 998.2 hPa WNW 9.7 km/h 27.4 km/h 87 % 0.0 mm 179 W/m2
08:20 16.4 °C 14.3 °C 998.2 hPa NW 12.9 km/h 20.9 km/h 87 % 0.0 mm 151 W/m2
08:25 16.5 °C 14.3 °C 998.2 hPa West 4.8 km/h 20.9 km/h 87 % 0.0 mm 128 W/m2
08:30 16.4 °C 14.3 °C 998.2 hPa WNW 9.7 km/h 19.3 km/h 87 % 0.0 mm 146 W/m2
08:35 16.2 °C 14.0 °C 998.2 hPa West 11.3 km/h 19.3 km/h 87 % 0.0 mm 202 W/m2
08:40 15.9 °C 13.9 °C 998.2 hPa NW 8.0 km/h 19.3 km/h 88 % 0.0 mm 139 W/m2
08:45 15.9 °C 14.1 °C 998.2 hPa WNW 3.2 km/h 19.3 km/h 89 % 0.0 mm 237 W/m2
08:55 16.9 °C 14.5 °C 998.2 hPa WNW 6.4 km/h 19.3 km/h 86 % 0.0 mm 160 W/m2
09:00 16.6 °C 14.4 °C 998.2 hPa West 3.2 km/h 19.3 km/h 87 % 0.0 mm 139 W/m2
09:05 16.4 °C 14.2 °C 998.2 hPa West 6.4 km/h 16.1 km/h 87 % 0.0 mm 156 W/m2
09:10 16.3 °C 14.2 °C 998.2 hPa NW 6.4 km/h 16.1 km/h 87 % 0.0 mm 204 W/m2
09:15 16.5 °C 14.5 °C 998.5 hPa West 1.6 km/h 14.5 km/h 88 % 0.0 mm 178 W/m2
09:20 16.7 °C 14.4 °C 998.5 hPa WNW 8.0 km/h 16.1 km/h 86 % 0.0 mm 146 W/m2
09:25 17.6 °C 15.1 °C 998.5 hPa West 9.7 km/h 16.1 km/h 85 % 0.0 mm 612 W/m2
09:30 17.5 °C 14.6 °C 998.5 hPa WNW 8.0 km/h 19.3 km/h 83 % 0.0 mm 492 W/m2
09:40 17.8 °C 14.3 °C 998.5 hPa West 8.0 km/h 19.3 km/h 80 % 0.0 mm 568 W/m2
09:45 17.9 °C 13.9 °C 998.5 hPa WNW 8.0 km/h 19.3 km/h 77 % 0.0 mm 128 W/m2
09:50 17.7 °C 13.8 °C 998.5 hPa WNW 4.8 km/h 19.3 km/h 78 % 0.0 mm 538 W/m2
09:55 17.7 °C 13.8 °C 998.5 hPa WNW 8.0 km/h 17.7 km/h 78 % 0.0 mm 682 W/m2
10:00 17.8 °C 13.7 °C 998.5 hPa SW 8.0 km/h 17.7 km/h 77 % 0.0 mm 287 W/m2
10:05 17.9 °C 14.2 °C 998.5 hPa Calm   16.1 km/h 79 % 0.0 mm 708 W/m2
10:10 18.5 °C 14.6 °C 998.5 hPa West 3.2 km/h 16.1 km/h 78 % 0.0 mm 765 W/m2
10:15 18.2 °C 13.7 °C 998.9 hPa West 14.5 km/h 19.3 km/h 75 % 0.0 mm 183 W/m2
10:25 17.9 °C 14.1 °C 998.5 hPa WSW 4.8 km/h 20.9 km/h 78 % 0.0 mm 629 W/m2
10:30 18.3 °C 14.4 °C 998.5 hPa West 11.3 km/h 19.3 km/h 78 % 0.0 mm 635 W/m2
10:35 18.6 °C 14.2 °C 998.9 hPa WNW 8.0 km/h 20.9 km/h 76 % 0.0 mm 652 W/m2
10:40 18.4 °C 14.3 °C 998.9 hPa WSW 6.4 km/h 20.9 km/h 77 % 0.0 mm 666 W/m2
10:45 18.5 °C 14.2 °C 998.9 hPa WSW 6.4 km/h 19.3 km/h 76 % 0.0 mm 691 W/m2
10:50 18.7 °C 14.3 °C 998.5 hPa WSW 12.9 km/h 20.9 km/h 76 % 0.0 mm 784 W/m2
10:55 18.8 °C 14.7 °C 998.5 hPa WNW 8.0 km/h 20.9 km/h 77 % 0.0 mm 770 W/m2
11:00 19.1 °C 14.9 °C 998.9 hPa West 3.2 km/h 22.5 km/h 77 % 0.0 mm 782 W/m2
11:10 18.9 °C 14.2 °C 998.5 hPa WSW 8.0 km/h 24.1 km/h 74 % 0.0 mm 167 W/m2
11:15 18.9 °C 14.6 °C 998.5 hPa WSW 9.7 km/h 20.9 km/h 76 % 0.0 mm 838 W/m2
11:20 19.4 °C 15.0 °C 998.5 hPa West 16.1 km/h 22.5 km/h 76 % 0.0 mm 991 W/m2
11:25 19.7 °C 15.4 °C 998.5 hPa WSW 9.7 km/h 24.1 km/h 76 % 0.0 mm 954 W/m2
11:30 20.5 °C 15.1 °C 998.5 hPa WSW 8.0 km/h 24.1 km/h 71 % 0.0 mm 1053 W/m2
11:35 19.6 °C 15.2 °C 998.5 hPa WNW 4.8 km/h 20.9 km/h 76 % 0.0 mm 626 W/m2
11:40 19.1 °C 14.6 °C 998.5 hPa WSW 1.6 km/h 20.9 km/h 75 % 0.0 mm 383 W/m2
11:45 18.6 °C 14.0 °C 998.9 hPa WNW 11.3 km/h 19.3 km/h 75 % 0.0 mm 269 W/m2
11:55 19.3 °C 14.6 °C 998.9 hPa WSW 11.3 km/h 22.5 km/h 74 % 0.0 mm 963 W/m2
12:00 19.4 °C 14.3 °C 998.9 hPa West 6.4 km/h 24.1 km/h 72 % 0.0 mm 967 W/m2
12:05 20.0 °C 14.8 °C 998.9 hPa WSW 20.9 km/h 24.1 km/h 72 % 0.0 mm 893 W/m2
12:10 20.1 °C 14.4 °C 998.9 hPa WNW 17.7 km/h 22.5 km/h 70 % 0.0 mm 930 W/m2
12:15 19.8 °C 14.6 °C 998.9 hPa WSW 16.1 km/h 24.1 km/h 72 % 0.0 mm 881 W/m2
12:20 20.2 °C 15.0 °C 998.9 hPa WNW 11.3 km/h 24.1 km/h 72 % 0.0 mm 935 W/m2
12:25 20.4 °C 14.1 °C 998.9 hPa NW 4.8 km/h 22.5 km/h 67 % 0.0 mm 824 W/m2
12:30 20.5 °C 14.8 °C 998.9 hPa WSW 6.4 km/h 20.9 km/h 70 % 0.0 mm 886 W/m2
12:40 20.0 °C 14.4 °C 998.9 hPa West 14.5 km/h 24.1 km/h 70 % 0.0 mm 954 W/m2
12:45 19.6 °C 13.9 °C 998.9 hPa WSW 14.5 km/h 24.1 km/h 70 % 0.0 mm 779 W/m2
12:50 19.4 °C 14.2 °C 999.2 hPa WSW 12.9 km/h 27.4 km/h 72 % 0.0 mm 591 W/m2
12:55 18.8 °C 13.7 °C 999.2 hPa WSW 14.5 km/h 27.4 km/h 72 % 0.0 mm 359 W/m2
13:00 18.7 °C 14.3 °C 999.2 hPa SSW 14.5 km/h 27.4 km/h 76 % 0.0 mm 522 W/m2
13:05 18.5 °C 14.2 °C 999.2 hPa WSW 14.5 km/h 24.1 km/h 76 % 0.0 mm 466 W/m2
13:10 18.8 °C 14.7 °C 999.2 hPa SSW 11.3 km/h 27.4 km/h 77 % 0.0 mm 930 W/m2
13:15 19.7 °C 15.1 °C 999.2 hPa WSW 9.7 km/h 30.6 km/h 75 % 0.0 mm 951 W/m2
13:25 19.9 °C 14.7 °C 999.2 hPa West 11.3 km/h 32.2 km/h 72 % 0.0 mm 953 W/m2
13:30 20.5 °C 15.1 °C 998.9 hPa WSW 8.0 km/h 32.2 km/h 71 % 0.0 mm 954 W/m2
13:35 20.3 °C 15.3 °C 998.9 hPa West 16.1 km/h 25.7 km/h 73 % 0.0 mm 962 W/m2
13:40 20.1 °C 15.1 °C 998.9 hPa West 17.7 km/h 25.7 km/h 73 % 0.0 mm 965 W/m2
13:45 19.9 °C 14.7 °C 999.2 hPa WSW 9.7 km/h 25.7 km/h 72 % 0.0 mm 977 W/m2
13:50 19.9 °C 14.9 °C 999.2 hPa SSW 4.8 km/h 25.7 km/h 73 % 0.0 mm 919 W/m2
13:55 20.3 °C 15.1 °C 999.2 hPa SSW 4.8 km/h 20.9 km/h 72 % 0.0 mm 935 W/m2
14:00 20.0 °C 14.8 °C 998.9 hPa WSW 11.3 km/h 25.7 km/h 72 % 0.0 mm 970 W/m2
14:10 20.0 °C 14.1 °C 999.2 hPa SW 9.7 km/h 27.4 km/h 69 % 0.0 mm 958 W/m2
14:15 19.6 °C 14.2 °C 999.2 hPa WSW 4.8 km/h 27.4 km/h 71 % 0.0 mm 807 W/m2
14:20 19.7 °C 14.5 °C 999.2 hPa WSW 14.5 km/h 22.5 km/h 72 % 0.0 mm 814 W/m2
14:25 19.4 °C 14.7 °C 999.2 hPa SSW 24.1 km/h 24.1 km/h 74 % 0.0 mm 631 W/m2
14:30 19.2 °C 14.4 °C 999.2 hPa SW 6.4 km/h 29.0 km/h 74 % 0.0 mm 515 W/m2
14:35 18.8 °C 14.7 °C 999.5 hPa WNW 12.9 km/h 29.0 km/h 77 % 0.0 mm 301 W/m2
14:40 18.4 °C 14.3 °C 999.5 hPa WSW 19.3 km/h 24.1 km/h 77 % 0.0 mm 290 W/m2
14:45 18.3 °C 14.4 °C 999.5 hPa WSW 11.3 km/h 22.5 km/h 78 % 0.0 mm 283 W/m2
14:55 18.9 °C 15.4 °C 999.5 hPa WSW 3.2 km/h 27.4 km/h 80 % 0.0 mm 517 W/m2
15:05 19.8 °C 15.4 °C 999.5 hPa West 9.7 km/h 30.6 km/h 76 % 0.0 mm 740 W/m2
15:10 20.1 °C 15.3 °C 999.5 hPa WNW 22.5 km/h 30.6 km/h 74 % 0.0 mm 893 W/m2
15:15 20.2 °C 15.9 °C 999.5 hPa West 14.5 km/h 27.4 km/h 76 % 0.0 mm 1000 W/m2
15:20 20.2 °C 15.0 °C 999.2 hPa WNW 9.7 km/h 27.4 km/h 72 % 0.0 mm 874 W/m2
15:25 20.1 °C 15.1 °C 999.5 hPa West 4.8 km/h 27.4 km/h 73 % 0.0 mm 795 W/m2
15:30 19.7 °C 15.0 °C 999.2 hPa West 16.1 km/h 30.6 km/h 74 % 0.0 mm 684 W/m2
15:40 20.3 °C 14.4 °C 999.5 hPa WSW 12.9 km/h 30.6 km/h 69 % 0.0 mm 694 W/m2
15:45 20.4 °C 15.0 °C 999.5 hPa WSW 6.4 km/h 27.4 km/h 71 % 0.0 mm 1034 W/m2
15:50 20.6 °C 14.9 °C 999.5 hPa WSW 8.0 km/h 30.6 km/h 70 % 0.0 mm 967 W/m2
15:55 20.1 °C 14.9 °C 999.5 hPa SSW 11.3 km/h 30.6 km/h 72 % 0.0 mm 870 W/m2
16:00 20.1 °C 15.1 °C 999.2 hPa WNW 9.7 km/h 30.6 km/h 73 % 0.0 mm 937 W/m2
16:05 20.0 °C 15.0 °C 999.2 hPa WNW 9.7 km/h 30.6 km/h 73 % 0.0 mm 947 W/m2
16:10 20.1 °C 15.1 °C 999.2 hPa WSW 12.9 km/h 33.8 km/h 73 % 0.0 mm 983 W/m2
16:15 20.2 °C 15.0 °C 999.2 hPa WSW 12.9 km/h 33.8 km/h 72 % 0.0 mm 290 W/m2
16:25 20.9 °C 15.0 °C 999.2 hPa WNW 11.3 km/h 29.0 km/h 69 % 0.0 mm 831 W/m2
16:30 20.4 °C 14.3 °C 999.2 hPa West 6.4 km/h 30.6 km/h 68 % 0.0 mm 900 W/m2
16:35 20.4 °C 15.2 °C 999.2 hPa West 20.9 km/h 30.6 km/h 72 % 0.0 mm 853 W/m2
16:40 20.3 °C 14.2 °C 999.5 hPa SSE 3.2 km/h 30.6 km/h 68 % 0.0 mm 828 W/m2
16:45 20.4 °C 14.3 °C 999.5 hPa WNW 19.3 km/h 32.2 km/h 68 % 0.0 mm 867 W/m2
16:50 20.3 °C 13.9 °C 999.5 hPa WSW 16.1 km/h 32.2 km/h 67 % 0.0 mm 635 W/m2
16:55 20.1 °C 14.6 °C 999.5 hPa NW 22.5 km/h 32.2 km/h 71 % 0.0 mm 439 W/m2
17:00 19.6 °C 14.2 °C 999.5 hPa West 12.9 km/h 37.0 km/h 71 % 0.0 mm 664 W/m2
17:10 20.3 °C 14.6 °C 999.5 hPa NW 20.9 km/h 30.6 km/h 70 % 0.0 mm 824 W/m2
17:15 20.4 °C 14.7 °C 999.5 hPa WNW 4.8 km/h 33.8 km/h 70 % 0.0 mm 798 W/m2
17:20 20.6 °C 14.7 °C 999.5 hPa SSW 9.7 km/h 33.8 km/h 69 % 0.0 mm 828 W/m2
17:25 20.4 °C 14.5 °C 999.5 hPa WNW 19.3 km/h 30.6 km/h 69 % 0.0 mm 666 W/m2
17:30 20.1 °C 14.4 °C 999.5 hPa West 24.1 km/h 30.6 km/h 70 % 0.0 mm 239 W/m2
17:35 18.9 °C 14.0 °C 999.5 hPa West 16.1 km/h 27.4 km/h 73 % 0.0 mm 67 W/m2
17:40 18.3 °C 14.2 °C 999.5 hPa WNW 19.3 km/h 29.0 km/h 77 % 0.0 mm 97 W/m2
17:45 17.7 °C 13.6 °C 999.5 hPa NW 12.9 km/h 30.6 km/h 77 % 0.0 mm 135 W/m2
17:55 17.4 °C 13.6 °C 999.9 hPa NW 17.7 km/h 32.2 km/h 78 % 0.0 mm 130 W/m2
18:00 17.4 °C 13.8 °C 999.5 hPa SW 6.4 km/h 32.2 km/h 79 % 0.0 mm 123 W/m2
18:05 17.4 °C 13.9 °C 999.5 hPa West 3.2 km/h 29.0 km/h 80 % 0.0 mm 123 W/m2
18:10 17.4 °C 14.0 °C 999.5 hPa WNW 22.5 km/h 29.0 km/h 80 % 0.0 mm 111 W/m2
18:15 17.3 °C 13.8 °C 999.5 hPa West 19.3 km/h 30.6 km/h 80 % 0.0 mm 81 W/m2
18:20 17.2 °C 13.9 °C 999.5 hPa West 19.3 km/h 30.6 km/h 81 % 0.0 mm 91 W/m2
18:25 17.1 °C 14.0 °C 999.5 hPa WNW 8.0 km/h 30.6 km/h 82 % 0.0 mm 88 W/m2
18:30 16.9 °C 14.0 °C 999.5 hPa West 20.9 km/h 20.9 km/h 83 % 0.0 mm 95 W/m2
18:40 16.7 °C 13.6 °C 999.5 hPa West 14.5 km/h 30.6 km/h 82 % 0.0 mm 95 W/m2
18:45 16.8 °C 13.7 °C 999.5 hPa WSW 3.2 km/h 30.6 km/h 82 % 0.0 mm 93 W/m2
18:50 17.0 °C 14.1 °C 999.5 hPa WNW 20.9 km/h 25.7 km/h 83 % 0.0 mm 102 W/m2
18:55 17.1 °C 14.0 °C 999.5 hPa West 14.5 km/h 30.6 km/h 82 % 0.0 mm 132 W/m2
19:00 17.3 °C 14.2 °C 999.5 hPa West 6.4 km/h 30.6 km/h 82 % 0.0 mm 181 W/m2
19:05 17.7 °C 14.2 °C 999.5 hPa WNW 11.3 km/h 29.0 km/h 80 % 0.0 mm 315 W/m2
19:10 17.8 °C 14.1 °C 999.5 hPa West 17.7 km/h 30.6 km/h 79 % 0.0 mm 302 W/m2
19:15 18.3 °C 14.4 °C 999.5 hPa NW 9.7 km/h 30.6 km/h 78 % 0.0 mm 580 W/m2
19:25 17.8 °C 13.9 °C 999.5 hPa West 9.7 km/h 29.0 km/h 78 % 0.0 mm 195 W/m2
19:30 17.7 °C 14.2 °C 999.5 hPa West 6.4 km/h 27.4 km/h 80 % 0.0 mm 185 W/m2
19:35 17.4 °C 14.0 °C 999.9 hPa WNW 12.9 km/h 22.5 km/h 80 % 0.0 mm 176 W/m2
19:40 17.7 °C 14.0 °C 999.9 hPa NNW 12.9 km/h 22.5 km/h 79 % 0.0 mm 216 W/m2
19:45 17.4 °C 13.9 °C 999.5 hPa West 12.9 km/h 25.7 km/h 80 % 0.0 mm 244 W/m2
19:50 17.2 °C 13.7 °C 999.9 hPa WNW 11.3 km/h 32.2 km/h 80 % 0.0 mm 176 W/m2
19:55 17.2 °C 13.9 °C 999.9 hPa NW 8.0 km/h 32.2 km/h 81 % 0.0 mm 98 W/m2
20:00 16.8 °C 13.7 °C 999.9 hPa WNW 17.7 km/h 29.0 km/h 82 % 0.0 mm 90 W/m2
20:10 16.4 °C 13.4 °C 999.9 hPa WSW 16.1 km/h 24.1 km/h 82 % 0.0 mm 62 W/m2
20:15 16.2 °C 13.3 °C 999.9 hPa WSW 12.9 km/h 24.1 km/h 83 % 0.0 mm 54 W/m2
20:20 16.1 °C 13.2 °C 999.9 hPa WNW 8.0 km/h 24.1 km/h 83 % 0.0 mm 47 W/m2
20:25 16.0 °C 13.3 °C 999.9 hPa NW 8.0 km/h 24.1 km/h 84 % 0.0 mm 28 W/m2
20:30 15.9 °C 13.6 °C 999.9 hPa West 11.3 km/h 19.3 km/h 86 % 0.0 mm 12 W/m2
20:35 15.8 °C 13.6 °C 999.9 hPa WNW 8.0 km/h 22.5 km/h 87 % 0.0 mm 49 W/m2
20:40 15.5 °C 13.7 °C 999.9 hPa West 6.4 km/h 22.5 km/h 89 % 0.3 mm 81 W/m2
20:45 15.6 °C 13.9 °C 999.9 hPa NW 12.9 km/h 24.1 km/h 90 % 0.3 mm 67 W/m2
20:55 15.4 °C 13.8 °C 1000.2 hPa West 17.7 km/h 24.1 km/h 90 % 0.3 mm 40 W/m2
21:00 15.3 °C 13.5 °C 1000.2 hPa West 17.7 km/h 24.1 km/h 89 % 0.3 mm 65 W/m2
21:05 15.4 °C 13.6 °C 1000.2 hPa WNW 4.8 km/h 22.5 km/h 89 % 0.3 mm 53 W/m2
21:10 15.5 °C 13.7 °C 1000.2 hPa WNW 11.3 km/h 20.9 km/h 89 % 0.3 mm 23 W/m2
21:15 15.4 °C 13.6 °C 1000.2 hPa NW 9.7 km/h 25.7 km/h 89 % 0.3 mm 19 W/m2
21:20 15.3 °C 13.4 °C 1000.2 hPa West 11.3 km/h 25.7 km/h 88 % 0.3 mm 21 W/m2
21:25 15.2 °C 13.4 °C 1000.2 hPa Calm   20.9 km/h 89 % 0.3 mm 19 W/m2
21:30 15.2 °C 13.4 °C 1000.2 hPa NW 11.3 km/h 20.9 km/h 89 % 0.3 mm 21 W/m2
21:40 15.3 °C 13.5 °C 1000.2 hPa WNW 8.0 km/h 22.5 km/h 89 % 0.0 mm 7 W/m2
21:45 15.3 °C 13.5 °C 1000.6 hPa WNW 9.7 km/h 22.5 km/h 89 % 0.0 mm 5 W/m2
21:50 15.3 °C 13.4 °C 1000.6 hPa NW 9.7 km/h 22.5 km/h 88 % 0.0 mm 0 W/m2
21:55 15.3 °C 13.4 °C 1000.6 hPa WNW 8.0 km/h 22.5 km/h 88 % 0.0 mm 0 W/m2
22:00 15.3 °C 13.2 °C 1000.6 hPa NNW 14.5 km/h 24.1 km/h 87 % 0.0 mm 0 W/m2
22:05 15.3 °C 13.1 °C 1000.6 hPa NW 12.9 km/h 24.1 km/h 87 % 0.0 mm 0 W/m2
22:10 15.2 °C 13.2 °C 1000.6 hPa West 3.2 km/h 22.5 km/h 88 % 0.0 mm 0 W/m2
22:15 15.2 °C 13.2 °C 1000.9 hPa NW 14.5 km/h 19.3 km/h 88 % 0.0 mm 0 W/m2
22:25 15.2 °C 13.4 °C 1000.9 hPa WNW 8.0 km/h 17.7 km/h 89 % 0.0 mm 0 W/m2
22:35 15.3 °C 13.3 °C 1000.9 hPa NNW 8.0 km/h 22.5 km/h 88 % 0.0 mm 0 W/m2
22:40 15.3 °C 13.3 °C 1000.9 hPa West 11.3 km/h 22.5 km/h 88 % 0.0 mm 0 W/m2
22:45 15.3 °C 13.1 °C 1000.9 hPa WNW 4.8 km/h 22.5 km/h 87 % 0.0 mm 0 W/m2
22:50 15.3 °C 13.1 °C 1000.9 hPa West 11.3 km/h 20.9 km/h 87 % 0.0 mm 0 W/m2
22:55 15.2 °C 13.1 °C 1001.2 hPa West 8.0 km/h 22.5 km/h 87 % 0.0 mm 0 W/m2
23:00 15.3 °C 12.9 °C 1001.2 hPa WNW 14.5 km/h 27.4 km/h 86 % 0.0 mm 0 W/m2
23:10 15.3 °C 12.9 °C 1001.2 hPa Calm   19.3 km/h 86 % 0.0 mm 0 W/m2
23:15 15.2 °C 13.1 °C 1001.2 hPa WNW 6.4 km/h 19.3 km/h 87 % 0.0 mm 0 W/m2
23:20 15.3 °C 12.9 °C 1001.2 hPa WNW 6.4 km/h 25.7 km/h 86 % 0.0 mm 0 W/m2
23:25 15.3 °C 12.9 °C 1001.2 hPa WNW 16.1 km/h 25.7 km/h 86 % 0.0 mm 0 W/m2
23:30 15.3 °C 13.0 °C 1001.6 hPa NW 8.0 km/h 24.1 km/h 86 % 0.0 mm 0 W/m2
23:35 15.4 °C 13.1 °C 1001.2 hPa West 11.3 km/h 24.1 km/h 86 % 0.0 mm 0 W/m2
23:40 15.4 °C 13.1 °C 1001.2 hPa WNW 17.7 km/h 24.1 km/h 86 % 0.0 mm 0 W/m2
23:45 15.4 °C 13.1 °C 1001.6 hPa West 4.8 km/h 24.1 km/h 86 % 0.0 mm 0 W/m2
23:55 15.3 °C 12.9 °C 1001.6 hPa WNW 8.0 km/h 19.3 km/h 86 % 0.0 mm 0 W/m2
Avec l'autorisation de Weather Underground - 1.5 mb